Time;durP1;ratioP1;P1;durP2;ratioP2;P2;SDS_P1;SDS_P2;PMS_P1;PMS_P2;Temp;Humidity;BMP_temperature;BMP_pressure;BME280_temperature;BME280_humidity;BME280_pressure;Samples;Min_cycle;Max_cycle;Signal;HPM_P1;HPM_P2
2023/02/04 06:54:42;;;;;;;5.35;1.52;;;;;;;;;;10650457;27;20423;-82
2023/02/04 07:00:05;;;;;;;7.25;1.80;;;;;;;;;;10636503;27;20415;-83
2023/02/04 07:05:06;;;;;;;10.00;2.97;;;;;;;;;;10633599;28;20077;-82
2023/02/04 07:10:07;;;;;;;5.20;1.90;;;;;;;;;;10632395;27;20054;-82
2023/02/04 07:15:08;;;;;;;8.55;2.25;;;;;;;;;;10631671;27;20024;-82
2023/02/04 07:20:09;;;;;;;;;;;;;;;;;;10630996;27;20122;-82
2023/02/04 07:25:13;;;;;;;7.55;2.00;;;;;;;;;;10628801;28;19910;-82
2023/02/04 07:30:14;;;;;;;6.70;2.05;;;;;;;;;;10627498;27;20027;-82
2023/02/04 07:35:16;;;;;;;;;;;;;;;;;;10628983;27;20121;-82
2023/02/04 07:40:17;;;;;;;6.22;2.30;;;;;;;;;;10629180;28;19908;-82
2023/02/04 07:45:18;;;;;;;6.82;2.38;;;;;;;;;;10631433;27;20143;-82
2023/02/04 07:50:19;;;;;;;;;;;;;;;;;;10630812;27;20106;-82
2023/02/04 07:55:20;;;;;;;6.15;2.13;;;;;;;;;;10629748;28;19908;-82
2023/02/04 08:00:21;;;;;;;5.93;2.10;;;;;;;;;;10627903;27;20038;-82
2023/02/04 08:05:22;;;;;;;7.28;2.17;;;;;;;;;;10602995;27;20114;-81
2023/02/04 08:10:23;;;;;;;;;;;;;;;;;;10605448;28;20088;-81
2023/02/04 08:15:24;;;;;;;9.90;2.55;;;;;;;;;;10604007;28;19952;-84
2023/02/04 08:20:26;;;;;;;;;;;;;;;;;;10594370;28;20031;-82
2023/02/04 08:25:28;;;;;;;10.55;3.22;;;;;;;;;;10591110;28;19903;-81
2023/02/04 08:30:29;;;;;;;11.07;2.95;;;;;;;;;;10589640;28;20545;-82
2023/02/04 08:35:30;;;;;;;;;;;;;;;;;;10589714;28;20114;-81
2023/02/04 08:40:32;;;;;;;9.75;3.72;;;;;;;;;;10601618;28;19907;-81
2023/02/04 08:45:33;;;;;;;10.95;4.45;;;;;;;;;;10602128;28;20028;-81
2023/02/04 08:50:34;;;;;;;;;;;;;;;;;;10591214;28;20034;-82
2023/02/04 08:55:35;;;;;;;16.65;4.75;;;;;;;;;;10588858;28;19903;-81
2023/02/04 09:00:36;;;;;;;;;;;;;;;;;;10598432;28;20111;-81
2023/02/04 09:05:37;;;;;;;15.73;7.90;;;;;;;;;;10586998;28;19910;-81
2023/02/04 09:10:38;;;;;;;10.20;4.68;;;;;;;;;;10586617;28;20027;-81
2023/02/04 09:15:39;;;;;;;;;;;;;;;;;;10587177;28;20067;-81
2023/02/04 09:20:40;;;;;;;9.65;3.67;;;;;;;;;;10586267;28;19908;-80
2023/02/04 09:25:42;;;;;;;13.45;4.20;;;;;;;;;;10586637;28;20024;-81
2023/02/04 09:30:44;;;;;;;9.68;3.72;;;;;;;;;;10586511;28;20396;-81
2023/02/04 09:35:45;;;;;;;8.50;3.72;;;;;;;;;;10586633;28;20118;-81
2023/02/04 09:40:49;;;;;;;11.43;3.75;;;;;;;;;;10587930;28;20028;-81
2023/02/04 09:45:50;;;;;;;13.60;4.05;;;;;;;;;;10586556;28;20020;-81
2023/02/04 09:50:52;;;;;;;8.25;2.92;;;;;;;;;;10585491;28;20035;-81
2023/02/04 09:55:53;;;;;;;10.13;3.50;;;;;;;;;;10586329;28;20539;-82
2023/02/04 10:00:53;;;;;;;;;;;;;;;;;;10587298;28;20126;-81
2023/02/04 10:05:54;;;;;;;17.52;4.63;;;;;;;;;;10587769;28;19910;-81
2023/02/04 10:10:56;;;;;;;12.38;4.15;;;;;;;;;;10590545;28;20191;-81
2023/02/04 10:15:58;;;;;;;10.10;3.90;;;;;;;;;;10587528;28;20024;-81
2023/02/04 10:21:11;;;;;;;10.35;3.40;;;;;;;;;;10586061;28;20058;-81
2023/02/04 10:26:13;;;;;;;10.13;3.50;;;;;;;;;;10586925;28;20030;-82
2023/02/04 10:31:34;;;;;;;9.43;3.47;;;;;;;;;;10604480;28;20059;-79
2023/02/04 10:36:35;;;;;;;9.68;3.33;;;;;;;;;;10609561;28;20552;-80
2023/02/04 10:41:38;;;;;;;10.23;3.45;;;;;;;;;;10588217;28;20027;-81
2023/02/04 10:46:39;;;;;;;11.52;3.53;;;;;;;;;;10591109;28;20019;-81
2023/02/04 10:51:40;;;;;;;8.52;3.55;;;;;;;;;;10588608;28;20401;-80
2023/02/04 10:56:42;;;;;;;8.85;3.38;;;;;;;;;;10588031;28;20084;-81
2023/02/04 11:01:43;;;;;;;10.50;3.67;;;;;;;;;;10591298;28;20024;-80
2023/02/04 11:06:44;;;;;;;;;;;;;;;;;;10589241;28;20410;-81
2023/02/04 11:11:46;;;;;;;8.45;3.50;;;;;;;;;;10590823;28;19904;-81
2023/02/04 11:16:48;;;;;;;12.05;3.85;;;;;;;;;;10589069;28;20024;-81
2023/02/04 11:21:49;;;;;;;10.02;3.28;;;;;;;;;;10594429;28;20100;-80
2023/02/04 11:26:54;;;;;;;9.98;3.42;;;;;;;;;;10589521;28;20023;-81
2023/02/04 11:31:56;;;;;;;7.40;3.00;;;;;;;;;;10586436;28;20032;-81
2023/02/04 11:37:00;;;;;;;10.25;4.15;;;;;;;;;;10589128;28;20020;-79
2023/02/04 11:42:02;;;;;;;9.73;3.63;;;;;;;;;;10594898;28;20023;-82
2023/02/04 11:47:06;;;;;;;9.27;3.47;;;;;;;;;;10593670;28;20465;-80
2023/02/04 11:52:13;;;;;;;10.07;4.13;;;;;;;;;;10594526;28;20585;-80
2023/02/04 11:57:14;;;;;;;19.63;6.55;;;;;;;;;;10598646;28;20020;-81
2023/02/04 12:02:20;;;;;;;9.07;3.78;;;;;;;;;;10593857;28;20024;-81
2023/02/04 12:07:26;;;;;;;12.95;4.18;;;;;;;;;;10598463;28;20122;-81
2023/02/04 12:12:28;;;;;;;16.67;6.70;;;;;;;;;;10599311;28;20024;-82
2023/02/04 12:17:30;;;;;;;9.25;3.45;;;;;;;;;;10599609;28;20485;-81
2023/02/04 12:22:31;;;;;;;9.75;3.97;;;;;;;;;;10596235;28;20032;-81
2023/02/04 12:27:32;;;;;;;12.77;5.15;;;;;;;;;;10612230;28;20027;-81
2023/02/04 12:32:33;;;;;;;;;;;;;;;;;;10603554;28;20099;-81
2023/02/04 12:37:34;;;;;;;14.82;6.20;;;;;;;;;;10591130;28;19910;-81
2023/02/04 12:42:35;;;;;;;11.93;4.32;;;;;;;;;;10595965;28;20134;-81
2023/02/04 12:47:36;;;;;;;9.65;4.43;;;;;;;;;;10600821;28;20051;-83
2023/02/04 12:52:38;;;;;;;11.13;4.10;;;;;;;;;;10608088;28;20027;-82
2023/02/04 12:57:39;;;;;;;11.43;4.35;;;;;;;;;;10607805;28;20016;-81
2023/02/04 13:02:40;;;;;;;;;;;;;;;;;;10621669;28;20031;-82
2023/02/04 13:07:41;;;;;;;7.75;3.50;;;;;;;;;;10608498;28;19994;-83
2023/02/04 13:12:42;;;;;;;18.00;4.30;;;;;;;;;;10604618;28;20043;-83
2023/02/04 13:17:43;;;;;;;10.45;3.90;;;;;;;;;;10615794;28;20020;-82
2023/02/04 13:22:44;;;;;;;;;;;;;;;;;;10617337;28;20035;-82
2023/02/04 13:27:45;;;;;;;13.43;4.25;;;;;;;;;;10604083;28;19911;-83
2023/02/04 13:32:46;;;;;;;;;;;;;;;;;;10597477;28;20472;-82
2023/02/04 13:37:47;;;;;;;9.20;3.15;;;;;;;;;;10597003;28;19904;-82
2023/02/04 13:42:48;;;;;;;;;;;;;;;;;;10598612;28;20393;-83
2023/02/04 13:47:49;;;;;;;9.98;3.42;;;;;;;;;;10599659;28;19959;-83
2023/02/04 13:52:50;;;;;;;7.47;2.92;;;;;;;;;;10593095;28;20063;-83
2023/02/04 13:57:51;;;;;;;;;;;;;;;;;;10596086;28;20102;-81
2023/02/04 14:02:52;;;;;;;7.38;2.50;;;;;;;;;;10593894;28;19914;-82
2023/02/04 14:07:53;;;;;;;7.57;2.80;;;;;;;;;;10593607;28;20122;-82
2023/02/04 14:12:54;;;;;;;8.40;3.00;;;;;;;;;;10594678;28;20028;-82
2023/02/04 14:17:55;;;;;;;9.02;2.72;;;;;;;;;;10599020;28;20020;-82
2023/02/04 14:22:56;;;;;;;9.00;2.78;;;;;;;;;;10617006;28;20031;-82
2023/02/04 14:27:58;;;;;;;6.53;2.65;;;;;;;;;;10593602;28;20162;-82
2023/02/04 14:33:00;;;;;;;8.90;3.13;;;;;;;;;;10594555;28;20027;-82
2023/02/04 14:38:01;;;;;;;8.35;3.10;;;;;;;;;;10593579;28;20325;-82
2023/02/04 14:43:02;;;;;;;8.85;2.70;;;;;;;;;;10594260;28;20031;-82
2023/02/04 14:48:03;;;;;;;9.73;3.15;;;;;;;;;;10592663;28;20092;-82
2023/02/04 14:53:04;;;;;;;9.07;2.88;;;;;;;;;;10594106;28;20393;-82
2023/02/04 14:58:06;;;;;;;6.93;2.50;;;;;;;;;;10597786;28;20031;-82
2023/02/04 15:03:06;;;;;;;7.57;3.08;;;;;;;;;;10593041;28;20080;-82
2023/02/04 15:08:08;;;;;;;9.32;3.20;;;;;;;;;;10591302;28;20446;-83
2023/02/04 15:13:09;;;;;;;11.43;4.10;;;;;;;;;;10594824;28;20075;-83
2023/02/04 15:18:10;;;;;;;11.27;2.90;;;;;;;;;;10600425;28;20449;-83
2023/02/04 15:23:14;;;;;;;5.80;2.40;;;;;;;;;;10599999;28;20055;-83
2023/02/04 15:28:15;;;;;;;9.98;3.55;;;;;;;;;;10600429;28;20023;-83
2023/02/04 15:33:16;;;;;;;8.00;3.90;;;;;;;;;;10601015;28;20047;-83
2023/02/04 15:38:17;;;;;;;17.50;6.32;;;;;;;;;;10599105;28;20030;-83
2023/02/04 15:43:18;;;;;;;15.35;5.35;;;;;;;;;;10599040;28;20388;-83
2023/02/04 15:48:19;;;;;;;;;;;;;;;;;;10599255;28;20034;-83
2023/02/04 15:53:21;;;;;;;10.48;4.00;;;;;;;;;;10599338;28;20006;-83
2023/02/04 15:58:22;;;;;;;16.63;5.03;;;;;;;;;;10598812;28;20020;-82
2023/02/04 16:03:23;;;;;;;;;;;;;;;;;;10598997;28;20035;-82
2023/02/04 16:08:24;;;;;;;8.63;3.20;;;;;;;;;;10599828;28;19933;-82
2023/02/04 16:13:25;;;;;;;;;;;;;;;;;;10612125;28;20019;-82
2023/02/04 16:18:26;;;;;;;7.45;3.38;;;;;;;;;;10613763;28;19950;-83
2023/02/04 16:23:27;;;;;;;;;;;;;;;;;;10599060;28;20035;-82
2023/02/04 16:28:28;;;;;;;10.63;3.10;;;;;;;;;;10597949;28;20320;-82
2023/02/04 16:33:29;;;;;;;;;;;;;;;;;;10597323;28;20055;-82
2023/02/04 16:38:30;;;;;;;7.78;3.13;;;;;;;;;;10596059;28;19907;-82
2023/02/04 16:43:31;;;;;;;10.02;3.75;;;;;;;;;;10596719;28;20027;-82
2023/02/04 16:48:32;;;;;;;12.63;5.55;;;;;;;;;;10596127;28;20112;-82
2023/02/04 16:53:33;;;;;;;9.88;3.80;;;;;;;;;;10595868;28;20028;-82
2023/02/04 16:58:34;;;;;;;;;;;;;;;;;;10597321;28;20023;-83
2023/02/04 17:03:35;;;;;;;13.77;5.47;;;;;;;;;;10597010;28;19904;-82
2023/02/04 17:08:36;;;;;;;;;;;;;;;;;;10596552;28;20122;-83
2023/02/04 17:13:37;;;;;;;9.63;3.42;;;;;;;;;;10596432;28;20361;-83
2023/02/04 17:18:38;;;;;;;11.02;4.07;;;;;;;;;;10594624;28;20038;-83
2023/02/04 17:23:39;;;;;;;;;;;;;;;;;;10595376;28;20027;-83
2023/02/04 17:28:40;;;;;;;13.60;6.82;;;;;;;;;;10595943;28;19904;-83
2023/02/04 17:33:42;;;;;;;14.07;6.03;;;;;;;;;;10595327;28;20061;-83
2023/02/04 17:38:43;;;;;;;8.20;3.92;;;;;;;;;;10594049;28;20055;-82
2023/02/04 17:43:43;;;;;;;;;;;;;;;;;;10594993;28;20063;-82
2023/02/04 17:48:45;;;;;;;12.00;4.53;;;;;;;;;;10594324;28;19904;-82
2023/02/04 17:53:46;;;;;;;13.27;5.47;;;;;;;;;;10595333;28;20123;-82
2023/02/04 17:58:47;;;;;;;;;;;;;;;;;;10597641;28;20030;-82
2023/02/04 18:03:48;;;;;;;10.80;4.78;;;;;;;;;;10596946;28;19904;-83
2023/02/04 18:08:49;;;;;;;;;;;;;;;;;;10615612;28;20059;-82
2023/02/04 18:13:50;;;;;;;;;;;;;;;;;;10601987;28;20006;-84
2023/02/04 18:18:55;;;;;;;11.27;5.00;;;;;;;;;;10596492;28;20266;-83
2023/02/04 18:24:02;;;;;;;9.18;5.25;;;;;;;;;;10597351;28;20028;-84
2023/02/04 18:29:12;;;;;;;9.75;4.63;;;;;;;;;;10598626;28;20027;-84
2023/02/04 18:34:20;;;;;;;20.88;9.43;;;;;;;;;;10600279;28;20118;-84
2023/02/04 18:39:25;;;;;;;10.20;5.20;;;;;;;;;;10602857;28;20035;-84
2023/02/04 18:44:33;;;;;;;10.52;5.18;;;;;;;;;;10593662;28;20099;-84
2023/02/04 18:49:35;;;;;;;13.45;6.78;;;;;;;;;;10594951;28;20055;-85
2023/02/04 18:54:37;;;;;;;11.68;5.72;;;;;;;;;;10597213;28;20027;-85
2023/02/04 18:59:40;;;;;;;8.90;4.85;;;;;;;;;;10593310;28;20019;-84
2023/02/04 19:04:41;;;;;;;11.73;6.00;;;;;;;;;;10593559;28;20032;-84
2023/02/04 19:09:41;;;;;;;;;;;;;;;;;;10601912;28;20028;-85
2023/02/04 19:14:43;;;;;;;12.50;6.10;;;;;;;;;;10615332;28;19949;-85
2023/02/04 19:20:04;;;;;;;10.02;6.05;;;;;;;;;;10615405;28;20023;-85
2023/02/04 19:25:24;;;;;;;12.02;5.50;;;;;;;;;;10614493;28;20103;-85
2023/02/04 19:30:28;;;;;;;11.55;7.13;;;;;;;;;;10614227;28;20084;-85
2023/02/04 19:35:38;;;;;;;13.45;6.80;;;;;;;;;;10614475;28;20054;-85
2023/02/04 19:40:41;;;;;;;8.70;5.77;;;;;;;;;;10614099;28;20135;-85
2023/02/04 19:45:42;;;;;;;13.40;7.47;;;;;;;;;;10610954;28;20026;-85
2023/02/04 19:50:43;;;;;;;11.65;6.30;;;;;;;;;;10610762;28;20031;-85
2023/02/04 19:55:44;;;;;;;;;;;;;;;;;;10604290;28;20034;-84
2023/02/04 20:00:58;;;;;;;12.57;7.85;;;;;;;;;;10600611;28;20333;-86
2023/02/04 20:06:01;;;;;;;10.32;6.35;;;;;;;;;;10624174;28;20057;-86
2023/02/04 20:11:21;;;;;;;14.30;7.25;;;;;;;;;;10614783;28;20054;-85
2023/02/04 20:16:33;;;;;;;10.10;5.90;;;;;;;;;;10624049;28;20126;-84
